Time,TemperatureF,DewpointF,PressureIn,WindDirection,WindDirectionDegrees,WindSpeedMPH,WindSpeedGustMPH,Humidity,HourlyPrecipIn,Conditions,Clouds,dailyrainin,SoftwareType,DateUTC
2013-02-24 00:01:00,30.7,25.0,29.84,SSW,210,2.0,6.0,80,0.00,,,0.00,weatherlink.com 1.10,2013-02-24 05:01:00,
2013-02-24 00:16:00,30.6,25.0,29.84,SSW,208,6.0,7.0,80,0.00,,,0.00,weatherlink.com 1.10,2013-02-24 05:16:00,
2013-02-24 00:31:00,30.6,25.0,29.84,SSW,204,3.0,7.0,80,0.00,,,0.00,weatherlink.com 1.10,2013-02-24 05:31:00,
2013-02-24 00:46:00,30.5,25.0,29.83,WSW,237,3.0,7.0,80,0.00,,,0.00,weatherlink.com 1.10,2013-02-24 05:46:00,
2013-02-24 01:01:00,30.5,25.0,29.83,SSW,193,7.0,8.0,80,0.00,,,0.00,weatherlink.com 1.10,2013-02-24 06:01:00,
2013-02-24 01:16:00,30.4,25.0,29.83,South,186,3.0,8.0,80,0.00,,,0.00,weatherlink.com 1.10,2013-02-24 06:16:00,
2013-02-24 01:31:00,30.4,25.0,29.83,SSW,198,4.0,11.0,80,0.00,,,0.00,weatherlink.com 1.10,2013-02-24 06:31:00,
2013-02-24 01:46:00,30.4,25.0,29.83,SSW,204,6.0,11.0,79,0.00,,,0.00,weatherlink.com 1.10,2013-02-24 06:46:00,
2013-02-24 02:01:00,30.5,25.0,29.83,SSW,205,9.0,10.0,79,0.00,,,0.00,weatherlink.com 1.10,2013-02-24 07:01:00,
2013-02-24 02:16:00,30.5,24.0,29.83,SSW,207,5.0,11.0,77,0.00,,,0.00,weatherlink.com 1.10,2013-02-24 07:16:00,
2013-02-24 02:31:00,30.6,24.0,29.83,SW,233,3.0,11.0,75,0.00,,,0.00,weatherlink.com 1.10,2013-02-24 07:31:00,
2013-02-24 02:46:00,30.6,24.0,29.83,SSW,195,5.0,10.0,76,0.00,,,0.00,weatherlink.com 1.10,2013-02-24 07:46:00,
2013-02-24 03:01:00,30.5,24.0,29.83,SSW,207,4.0,8.0,77,0.00,,,0.00,weatherlink.com 1.10,2013-02-24 08:01:00,
2013-02-24 03:16:00,30.4,24.0,29.83,SSW,207,5.0,5.0,77,0.00,,,0.00,weatherlink.com 1.10,2013-02-24 08:16:00,
2013-02-24 03:31:00,30.4,24.0,29.84,SW,225,5.0,9.0,77,0.00,,,0.00,weatherlink.com 1.10,2013-02-24 08:31:00,
2013-02-24 03:46:00,30.2,24.0,29.84,WSW,256,2.0,9.0,76,0.00,,,0.00,weatherlink.com 1.10,2013-02-24 08:46:00,
2013-02-24 04:01:00,30.1,23.0,29.84,SW,233,4.0,8.0,76,0.00,,,0.00,weatherlink.com 1.10,2013-02-24 09:01:00,
2013-02-24 04:16:00,30.0,23.0,29.84,WSW,250,6.0,11.0,76,0.00,,,0.00,weatherlink.com 1.10,2013-02-24 09:16:00,
2013-02-24 04:31:00,30.0,23.0,29.84,WSW,240,3.0,11.0,76,0.00,,,0.00,weatherlink.com 1.10,2013-02-24 09:31:00,
2013-02-24 04:47:00,29.8,23.0,29.85,SW,225,4.0,10.0,76,0.00,,,0.00,weatherlink.com 1.10,2013-02-24 09:47:00,
2013-02-24 05:01:00,29.8,23.0,29.85,SSW,208,7.0,10.0,76,0.00,,,0.00,weatherlink.com 1.10,2013-02-24 10:01:00,
2013-02-24 05:17:00,29.7,23.0,29.85,SW,226,7.0,11.0,76,0.00,,,0.00,weatherlink.com 1.10,2013-02-24 10:17:00,
2013-02-24 05:32:00,29.7,23.0,29.86,SSW,204,6.0,12.0,77,0.00,,,0.00,weatherlink.com 1.10,2013-02-24 10:32:00,
2013-02-24 05:47:00,29.6,23.0,29.86,WSW,237,8.0,9.0,77,0.00,,,0.00,weatherlink.com 1.10,2013-02-24 10:47:00,
2013-02-24 06:01:00,29.5,23.0,29.86,SW,229,4.0,8.0,77,0.00,,,0.00,weatherlink.com 1.10,2013-02-24 11:01:00,
2013-02-24 06:17:00,29.4,23.0,29.86,SW,223,5.0,10.0,78,0.00,,,0.00,weatherlink.com 1.10,2013-02-24 11:17:00,
2013-02-24 06:32:00,29.3,23.0,29.86,SW,233,6.0,8.0,78,0.00,,,0.00,weatherlink.com 1.10,2013-02-24 11:32:00,
2013-02-24 06:47:00,29.1,23.0,29.86,SW,221,2.0,8.0,79,0.00,,,0.00,weatherlink.com 1.10,2013-02-24 11:47:00,
2013-02-24 07:02:00,29.1,24.0,29.85,SW,232,4.0,9.0,80,0.00,,,0.00,weatherlink.com 1.10,2013-02-24 12:02:00,
2013-02-24 07:17:00,28.8,24.0,29.85,West,260,5.0,9.0,81,0.00,,,0.00,weatherlink.com 1.10,2013-02-24 12:17:00,
2013-02-24 07:32:00,28.5,24.0,29.85,WSW,248,3.0,8.0,82,0.00,,,0.00,weatherlink.com 1.10,2013-02-24 12:32:00,
2013-02-24 07:47:00,28.2,24.0,29.85,West,264,3.0,9.0,84,0.00,,,0.00,weatherlink.com 1.10,2013-02-24 12:47:00,
2013-02-24 08:02:00,28.2,24.0,29.85,SW,231,4.0,8.0,84,0.00,,,0.00,weatherlink.com 1.10,2013-02-24 13:02:00,
2013-02-24 08:17:00,28.4,25.0,29.86,WSW,248,10.0,10.0,85,0.00,,,0.00,weatherlink.com 1.10,2013-02-24 13:17:00,
2013-02-24 08:33:00,28.5,25.0,29.86,WSW,246,2.0,12.0,85,0.00,,,0.00,weatherlink.com 1.10,2013-02-24 13:33:00,
2013-02-24 08:48:00,28.4,25.0,29.86,WSW,244,3.0,13.0,86,0.00,,,0.00,weatherlink.com 1.10,2013-02-24 13:48:00,
2013-02-24 09:03:00,28.5,24.0,29.86,West,260,4.0,12.0,84,0.00,,,0.00,weatherlink.com 1.10,2013-02-24 14:03:00,
2013-02-24 09:18:00,28.7,24.0,29.86,WSW,243,4.0,13.0,83,0.00,,,0.00,weatherlink.com 1.10,2013-02-24 14:18:00,
2013-02-24 09:32:00,29.0,25.0,29.86,West,262,5.0,13.0,83,0.00,,,0.00,weatherlink.com 1.10,2013-02-24 14:32:00,
2013-02-24 09:47:00,28.9,24.0,29.86,WSW,249,6.0,12.0,82,0.00,,,0.00,weatherlink.com 1.10,2013-02-24 14:47:00,
2013-02-24 10:03:00,29.4,25.0,29.86,WSW,242,6.0,10.0,82,0.00,,,0.00,weatherlink.com 1.10,2013-02-24 15:03:00,
2013-02-24 10:19:00,29.9,24.0,29.87,West,262,9.0,12.0,79,0.00,,,0.00,weatherlink.com 1.10,2013-02-24 15:19:00,
2013-02-24 10:33:00,30.4,24.0,29.87,West,262,6.0,13.0,77,0.00,,,0.00,weatherlink.com 1.10,2013-02-24 15:33:00,
2013-02-24 10:49:00,30.9,24.0,29.87,SW,232,6.0,15.0,74,0.00,,,0.00,weatherlink.com 1.10,2013-02-24 15:49:00,
2013-02-24 11:03:00,30.8,23.0,29.87,SW,233,11.0,14.0,73,0.00,,,0.00,weatherlink.com 1.10,2013-02-24 16:03:00,
2013-02-24 11:19:00,30.7,22.0,29.88,WNW,283,8.0,13.0,71,0.00,,,0.00,weatherlink.com 1.10,2013-02-24 16:19:00,
2013-02-24 11:34:00,30.6,23.0,29.88,WSW,243,6.0,15.0,72,0.00,,,0.00,weatherlink.com 1.10,2013-02-24 16:34:00,
2013-02-24 11:49:00,30.5,23.0,29.88,West,259,5.0,14.0,75,0.00,,,0.00,weatherlink.com 1.10,2013-02-24 16:49:00,
2013-02-24 12:04:00,30.5,24.0,29.89,WSW,252,3.0,15.0,76,0.00,,,0.00,weatherlink.com 1.10,2013-02-24 17:04:00,
2013-02-24 12:19:00,30.4,25.0,29.89,WSW,257,3.0,11.0,80,0.00,,,0.00,weatherlink.com 1.10,2013-02-24 17:19:00,
2013-02-24 12:34:00,30.4,25.0,29.89,West,259,6.0,13.0,79,0.00,,,0.00,weatherlink.com 1.10,2013-02-24 17:34:00,
2013-02-24 12:49:00,30.3,25.0,29.90,SW,222,4.0,12.0,80,0.00,,,0.00,weatherlink.com 1.10,2013-02-24 17:49:00,
2013-02-24 13:04:00,30.3,25.0,29.90,West,259,7.0,9.0,82,0.00,,,0.00,weatherlink.com 1.10,2013-02-24 18:04:00,
2013-02-24 13:19:00,30.6,25.0,29.90,WSW,248,5.0,11.0,79,0.00,,,0.00,weatherlink.com 1.10,2013-02-24 18:19:00,
2013-02-24 13:34:00,31.6,25.0,29.90,WNW,283,6.0,10.0,75,0.00,,,0.00,weatherlink.com 1.10,2013-02-24 18:34:00,
2013-02-24 13:49:00,31.6,24.0,29.90,SW,224,5.0,17.0,73,0.00,,,0.00,weatherlink.com 1.10,2013-02-24 18:49:00,
2013-02-24 14:04:00,31.4,24.0,29.91,WSW,245,7.0,14.0,74,0.00,,,0.00,weatherlink.com 1.10,2013-02-24 19:04:00,
2013-02-24 14:19:00,30.5,24.0,29.91,WSW,238,6.0,15.0,77,0.00,,,0.00,weatherlink.com 1.10,2013-02-24 19:19:00,
2013-02-24 14:34:00,31.0,24.0,29.91,WSW,243,13.0,18.0,74,0.00,,,0.00,weatherlink.com 1.10,2013-02-24 19:34:00,
2013-02-24 15:04:00,31.7,23.0,29.92,WNW,283,13.0,16.0,71,0.00,,,0.00,weatherlink.com 1.10,2013-02-24 20:04:00,
2013-02-24 15:19:00,31.9,23.0,29.93,West,259,6.0,18.0,71,0.00,,,0.00,weatherlink.com 1.10,2013-02-24 20:19:00,
2013-02-24 15:34:00,31.9,24.0,29.93,WSW,237,13.0,15.0,72,0.00,,,0.00,weatherlink.com 1.10,2013-02-24 20:34:00,
2013-02-24 15:49:00,32.1,24.0,29.94,WSW,243,12.0,16.0,72,0.00,,,0.00,weatherlink.com 1.10,2013-02-24 20:49:00,
2013-02-24 16:04:00,32.5,24.0,29.94,West,267,8.0,13.0,72,0.00,,,0.00,weatherlink.com 1.10,2013-02-24 21:04:00,
2013-02-24 16:19:00,32.7,24.0,29.94,WSW,240,10.0,18.0,71,0.00,,,0.00,weatherlink.com 1.10,2013-02-24 21:19:00,
2013-02-24 16:34:00,32.7,24.0,29.94,WSW,240,6.0,15.0,70,0.00,,,0.00,weatherlink.com 1.10,2013-02-24 21:34:00,
2013-02-24 16:49:00,32.8,24.0,29.94,SSW,211,7.0,16.0,70,0.00,,,0.00,weatherlink.com 1.10,2013-02-24 21:49:00,
2013-02-24 17:04:00,32.6,24.0,29.95,West,259,4.0,18.0,70,0.00,,,0.00,weatherlink.com 1.10,2013-02-24 22:04:00,
2013-02-24 17:19:00,32.4,24.0,29.96,SW,235,3.0,12.0,71,0.00,,,0.00,weatherlink.com 1.10,2013-02-24 22:19:00,
2013-02-24 17:35:00,32.3,24.0,29.96,WSW,237,9.0,13.0,72,0.00,,,0.00,weatherlink.com 1.10,2013-02-24 22:35:00,
2013-02-24 17:49:00,32.1,24.0,29.97,SW,236,9.0,12.0,73,0.00,,,0.00,weatherlink.com 1.10,2013-02-24 22:49:00,
2013-02-24 18:06:00,32.0,25.0,29.98,WSW,256,9.0,13.0,74,0.00,,,0.00,weatherlink.com 1.10,2013-02-24 23:06:00,
2013-02-24 18:19:00,32.0,24.0,29.99,SW,232,8.0,13.0,73,0.00,,,0.00,weatherlink.com 1.10,2013-02-24 23:19:00,
2013-02-24 18:34:00,32.1,24.0,29.99,SW,229,6.0,12.0,73,0.00,,,0.00,weatherlink.com 1.10,2013-02-24 23:34:00,
2013-02-24 18:49:00,32.1,24.0,30.00,WNW,301,3.0,12.0,73,0.00,,,0.00,weatherlink.com 1.10,2013-02-24 23:49:00,
2013-02-24 19:04:00,32.1,24.0,30.00,WSW,243,5.0,12.0,73,0.00,,,0.00,weatherlink.com 1.10,2013-02-25 00:04:00,
2013-02-24 19:19:00,32.1,24.0,30.01,WSW,256,3.0,11.0,73,0.00,,,0.00,weatherlink.com 1.10,2013-02-25 00:19:00,
2013-02-24 19:35:00,32.0,24.0,30.01,West,268,8.0,11.0,73,0.00,,,0.00,weatherlink.com 1.10,2013-02-25 00:35:00,
2013-02-24 19:49:00,32.0,24.0,30.02,WNW,287,6.0,14.0,73,0.00,,,0.00,weatherlink.com 1.10,2013-02-25 00:49:00,
2013-02-24 20:04:00,31.9,24.0,30.02,NNW,332,3.0,12.0,73,0.00,,,0.00,weatherlink.com 1.10,2013-02-25 01:04:00,
2013-02-24 20:19:00,31.7,24.0,30.03,SW,233,5.0,11.0,73,0.00,,,0.00,weatherlink.com 1.10,2013-02-25 01:19:00,
2013-02-24 20:35:00,31.5,24.0,30.03,West,274,7.0,12.0,73,0.00,,,0.00,weatherlink.com 1.10,2013-02-25 01:35:00,
2013-02-24 20:50:00,31.3,24.0,30.04,WSW,257,4.0,9.0,73,0.00,,,0.00,weatherlink.com 1.10,2013-02-25 01:50:00,
2013-02-24 21:05:00,31.2,23.0,30.04,WSW,248,8.0,11.0,73,0.00,,,0.00,weatherlink.com 1.10,2013-02-25 02:05:00,
2013-02-24 21:20:00,31.2,23.0,30.05,WSW,245,3.0,9.0,73,0.00,,,0.00,weatherlink.com 1.10,2013-02-25 02:20:00,
2013-02-24 21:35:00,31.0,23.0,30.04,WSW,256,6.0,9.0,73,0.00,,,0.00,weatherlink.com 1.10,2013-02-25 02:35:00,
2013-02-24 21:50:00,30.9,24.0,30.04,West,269,3.0,8.0,74,0.00,,,0.00,weatherlink.com 1.10,2013-02-25 02:50:00,
2013-02-24 22:05:00,30.9,24.0,30.04,WSW,248,1.0,8.0,74,0.00,,,0.00,weatherlink.com 1.10,2013-02-25 03:05:00,
2013-02-24 22:20:00,30.8,23.0,30.05,SW,233,2.0,7.0,74,0.00,,,0.00,weatherlink.com 1.10,2013-02-25 03:20:00,
2013-02-24 22:35:00,30.7,23.0,30.05,SW,228,2.0,8.0,74,0.00,,,0.00,weatherlink.com 1.10,2013-02-25 03:35:00,
2013-02-24 22:50:00,30.6,23.0,30.05,WSW,246,3.0,8.0,74,0.00,,,0.00,weatherlink.com 1.10,2013-02-25 03:50:00,
2013-02-24 23:05:00,30.6,23.0,30.04,West,260,4.0,8.0,74,0.00,,,0.00,weatherlink.com 1.10,2013-02-25 04:05:00,
2013-02-24 23:20:00,30.5,23.0,30.05,WSW,252,2.0,8.0,74,0.00,,,0.00,weatherlink.com 1.10,2013-02-25 04:20:00,
2013-02-24 23:35:00,30.5,23.0,30.05,WSW,237,4.0,7.0,74,0.00,,,0.00,weatherlink.com 1.10,2013-02-25 04:35:00,
2013-02-24 23:50:00,30.4,23.0,30.05,SW,228,5.0,8.0,74,0.00,,,0.00,weatherlink.com 1.10,2013-02-25 04:50:00,